This is the latest recevied weather packets stored in our database for station/object VK4RM-13. If no packets are shown the sender has not sent any weather packets the latest 1 day(s).
| Time | Temp. | Humidity | Pressure | Rain* | Wind** | Luminosity | Snow |
|---|---|---|---|---|---|---|---|
| 1778111194 | 25.56° C | 76% | 996.3 hPa | 0 mm | - | - | - |
| 1778109394 | 24.44° C | 77% | 996.3 hPa | 0 mm | - | - | - |
| 1778108794 | 23.89° C | 80% | 996.2 hPa | 0 mm | - | - | - |
| 1778108194 | 23.89° C | 81% | 996.1 hPa | 0 mm | - | - | - |
| 1778106394 | 22.22° C | 86% | 995.9 hPa | 0 mm | - | - | - |
| 1778105794 | 21.67° C | 94% | 995.8 hPa | 0 mm | - | - | - |
| 1778105194 | 21.11° C | 95% | 995.9 hPa | 0 mm | - | - | - |
| 1778104594 | 21.11° C | 96% | 995.8 hPa | 0 mm | - | - | - |
| 1778103394 | 20° C | 96% | 995.7 hPa | 0 mm | - | - | - |
| 1778101595 | 19.44° C | 97% | 995.4 hPa | 0 mm | - | - | - |
| 1778098595 | 18.33° C | 95% | 994.9 hPa | 0 mm | - | - | - |
| 1778097994 | 18.33° C | 95% | 994.8 hPa | 0 mm | - | - | - |
| 1778086595 | 18.33° C | 95% | 994.5 hPa | 0.25 mm | - | - | - |
| 1778082995 | 18.89° C | 95% | 994.7 hPa | 0 mm | - | - | - |
| 1778082395 | 18.89° C | 95% | 994.7 hPa | 0 mm | - | - | - |
| 1778081795 | 18.89° C | 95% | 994.8 hPa | 0 mm | - | - | - |
| 1778081195 | 18.89° C | 95% | 994.7 hPa | 0 mm | - | - | - |
| 1778080595 | 18.89° C | 95% | 994.9 hPa | 0 mm | - | - | - |
| 1778079995 | 18.89° C | 94% | 994.9 hPa | 0 mm | - | - | - |
| 1778079395 | 18.89° C | 94% | 994.9 hPa | 0 mm | - | - | - |
| 1778078795 | 18.89° C | 94% | 995 hPa | 0 mm | - | - | - |
| 1778078195 | 18.89° C | 94% | 995 hPa | 0 mm | - | - | - |
| 1778077595 | 18.89° C | 94% | 995 hPa | 0 mm | - | - | - |
| 1778076995 | 19.44° C | 94% | 995.1 hPa | 0 mm | - | - | - |
| 1778076395 | 19.44° C | 94% | 995.1 hPa | 0 mm | - | - | - |
* Rain latest hour (hover to see other rain measurements)
** Current wind speed in m/s (hover to see current wind gust speed)